Time;durP1;ratioP1;P1;durP2;ratioP2;P2;SDS_P1;SDS_P2;PMS_P1;PMS_P2;Temp;Humidity;BMP_temperature;BMP_pressure;BME280_temperature;BME280_humidity;BME280_pressure;Samples;Min_cycle;Max_cycle;Signal;HPM_P1;HPM_P2
2022/07/21 00:01:45;;;;;;;;;;;;;;;20.25;72.43;101812.00;5032616;28;20052;-76
2022/07/21 00:04:10;;;;;;;11.35;8.85;;;;;;;20.21;72.82;101816.34;5030992;28;19917;-73
2022/07/21 00:06:36;;;;;;;12.27;8.27;;;;;;;20.19;72.96;101832.44;5042564;28;20380;-75
2022/07/21 00:09:01;;;;;;;12.77;8.97;;;;;;;20.20;73.01;101814.66;5048789;28;20033;-74
2022/07/21 00:11:28;;;;;;;12.60;8.30;;;;;;;20.16;73.38;101811.50;5048406;28;20025;-75
2022/07/21 00:13:53;;;;;;;;;;;;;;;20.13;73.50;101811.13;5032361;28;20159;-75
2022/07/21 00:16:20;;;;;;;11.10;8.52;;;;;;;20.09;73.85;101816.31;5035220;28;20408;-75
2022/07/21 00:18:45;;;;;;;14.20;8.65;;;;;;;20.12;73.67;101807.50;5046472;28;20029;-76
2022/07/21 00:21:11;;;;;;;11.50;8.63;;;;;;;20.07;73.92;101812.91;5044494;28;20036;-75
2022/07/21 00:23:36;;;;;;;12.53;9.20;;;;;;;20.03;73.84;101817.25;5045720;28;20029;-75
2022/07/21 00:26:02;;;;;;;12.07;8.97;;;;;;;19.97;74.48;101808.97;5051051;28;20079;-75
2022/07/21 00:28:27;;;;;;;12.48;9.38;;;;;;;20.00;74.75;101816.88;5045505;28;20029;-75
2022/07/21 00:30:53;;;;;;;12.23;9.37;;;;;;;19.95;74.78;101806.44;5041823;28;20051;-75
2022/07/21 00:33:18;;;;;;;13.30;9.00;;;;;;;19.92;75.03;101803.28;5045357;28;20055;-75
2022/07/21 00:35:43;;;;;;;11.90;9.60;;;;;;;19.92;75.38;101794.94;5041820;28;20021;-74
2022/07/21 00:38:09;;;;;;;10.70;8.90;;;;;;;19.89;75.22;101790.69;5031270;28;20029;-74
2022/07/21 00:40:34;;;;;;;18.13;10.70;;;;;;;19.94;75.72;101795.53;5042465;28;20068;-74
2022/07/21 00:42:59;;;;;;;15.10;9.77;;;;;;;19.77;76.30;101800.03;5036399;28;20033;-74
2022/07/21 00:45:25;;;;;;;14.37;9.83;;;;;;;19.73;76.43;101796.03;5031435;28;20041;-74
2022/07/21 00:47:50;;;;;;;14.17;10.83;;;;;;;19.76;76.56;101792.78;5042333;28;20396;-74
2022/07/21 00:50:18;;;;;;;16.27;9.80;;;;;;;19.74;76.43;101800.53;5036209;28;20048;-75
2022/07/21 00:52:45;;;;;;;12.57;9.75;;;;;;;19.75;76.40;101791.94;5037832;28;20030;-74
2022/07/21 00:55:13;;;;;;;20.98;10.05;;;;;;;19.65;76.63;101796.38;5035681;28;20021;-73
2022/07/21 00:57:39;;;;;;;12.18;9.77;;;;;;;19.71;76.60;101809.34;5050603;28;20040;-75
2022/07/21 01:00:07;;;;;;;10.70;9.60;;;;;;;19.75;76.82;101816.13;5043684;28;20477;-74
2022/07/21 01:02:36;;;;;;;12.48;9.75;;;;;;;19.76;76.75;101815.03;5030408;28;20747;-75
2022/07/21 01:05:01;;;;;;;14.45;10.82;;;;;;;19.76;76.84;101807.56;5044994;28;20021;-73
2022/07/21 01:07:27;;;;;;;15.27;11.02;;;;;;;19.90;76.25;101805.44;5046992;28;20079;-75
2022/07/21 01:09:54;;;;;;;17.17;10.10;;;;;;;19.79;76.79;101809.03;5030111;28;20076;-75
2022/07/21 01:12:20;;;;;;;16.05;10.10;;;;;;;19.75;77.06;101813.34;5037636;28;20044;-74
2022/07/21 01:14:45;;;;;;;11.20;10.00;;;;;;;19.88;76.50;101808.47;5031249;28;20026;-75
2022/07/21 01:17:11;;;;;;;12.80;10.20;;;;;;;19.84;76.36;101807.22;5042099;28;20057;-75
2022/07/21 01:19:37;;;;;;;14.87;10.03;;;;;;;19.76;76.92;101799.22;5030038;28;20119;-75
2022/07/21 01:22:03;;;;;;;12.60;10.23;;;;;;;19.71;76.91;101796.28;5030548;28;20025;-75
2022/07/21 01:24:28;;;;;;;14.77;9.93;;;;;;;19.68;77.22;101793.13;5028882;28;20432;-75
2022/07/21 01:26:54;;;;;;;14.50;10.07;;;;;;;19.71;77.46;101795.44;5043950;28;20071;-75
2022/07/21 01:29:19;;;;;;;16.90;10.30;;;;;;;19.77;77.27;101797.28;5039797;28;20036;-76
2022/07/21 01:31:46;;;;;;;12.43;10.03;;;;;;;19.77;76.98;101788.94;5030650;28;20026;-76
2022/07/21 01:34:12;;;;;;;14.30;10.13;;;;;;;19.80;77.05;101799.59;5030081;28;20068;-74
2022/07/21 01:36:38;;;;;;;15.80;10.17;;;;;;;19.78;76.85;101796.19;5043893;28;20061;-74
2022/07/21 01:41:49;;;;;;;13.98;9.38;;;;;;;19.61;77.62;101784.00;5043535;28;20087;-74
2022/07/21 01:44:14;;;;;;;13.27;10.30;;;;;;;19.68;77.48;101774.50;5045682;28;20068;-74
2022/07/21 01:46:44;;;;;;;16.73;10.73;;;;;;;19.56;78.10;101775.50;5032056;28;20056;-75
2022/07/21 01:49:11;;;;;;;18.33;10.57;;;;;;;19.58;77.70;101781.72;5034292;28;20044;-74
2022/07/21 01:51:36;;;;;;;;;;;;;;;19.55;78.48;101777.47;5044385;28;20036;-74
2022/07/21 01:54:02;;;;;;;14.48;9.55;;;;;;;19.58;78.37;101785.31;5036199;28;20369;-76
2022/07/21 01:56:28;;;;;;;;;;;;;;;19.54;78.50;101788.81;5046358;28;20029;-74
2022/07/21 01:58:55;;;;;;;16.10;10.60;;;;;;;19.58;78.41;101787.28;5042593;28;19916;-75
2022/07/21 02:01:22;;;;;;;15.02;10.73;;;;;;;19.55;78.31;101788.59;5037185;28;20035;-75
2022/07/21 02:03:48;;;;;;;13.20;10.52;;;;;;;19.64;78.07;101783.56;5043891;28;20124;-75
2022/07/21 02:06:13;;;;;;;13.98;11.98;;;;;;;19.59;78.12;101786.19;5028990;28;20116;-75
2022/07/21 02:08:42;;;;;;;16.37;11.47;;;;;;;19.52;78.30;101780.69;5034991;28;20112;-75
2022/07/21 02:11:08;;;;;;;15.50;11.43;;;;;;;19.44;78.54;101778.25;5039204;28;20040;-75
2022/07/21 02:13:33;;;;;;;19.02;11.48;;;;;;;19.44;78.42;101782.94;5042267;28;20130;-76
2022/07/21 02:15:59;;;;;;;21.30;12.33;;;;;;;19.36;79.15;101774.94;5035416;28;20033;-75
2022/07/21 02:18:24;;;;;;;19.13;12.67;;;;;;;19.35;79.49;101764.88;5028679;28;20072;-75
2022/07/21 02:20:53;;;;;;;21.93;14.17;;;;;;;19.35;79.44;101767.66;5044701;28;20036;-74
2022/07/21 02:23:18;;;;;;;17.60;12.60;;;;;;;19.30;79.46;101767.50;5044758;28;20025;-74
2022/07/21 02:25:44;;;;;;;19.37;12.63;;;;;;;19.21;79.63;101768.88;5045512;28;20032;-76
2022/07/21 02:28:10;;;;;;;15.43;11.85;;;;;;;19.24;79.49;101766.50;5033793;28;20028;-74
2022/07/21 02:30:37;;;;;;;17.17;12.60;;;;;;;19.27;80.07;101766.03;5047095;28;20037;-75
2022/07/21 02:33:03;;;;;;;16.25;11.98;;;;;;;19.21;80.38;101763.31;5040381;28;20044;-75
2022/07/21 02:35:29;;;;;;;17.30;13.70;;;;;;;19.33;79.61;101769.84;5040255;28;20029;-75
2022/07/21 02:37:54;;;;;;;17.33;13.70;;;;;;;19.19;80.32;101751.56;5042947;28;20030;-75
2022/07/21 02:40:20;;;;;;;19.60;13.80;;;;;;;19.17;80.44;101759.31;5033402;28;20527;-75
2022/07/21 02:42:45;;;;;;;24.80;13.50;;;;;;;19.12;80.01;101750.81;5029982;28;20045;-77
2022/07/21 02:45:10;;;;;;;19.03;13.10;;;;;;;19.13;80.34;101760.84;5034523;28;20029;-74
2022/07/21 02:47:56;;;;;;;18.23;13.80;;;;;;;19.19;79.81;101754.34;5029468;28;20088;-75
2022/07/21 02:50:23;;;;;;;17.52;13.32;;;;;;;19.17;80.15;101762.06;5035233;28;20061;-75
2022/07/21 02:52:49;;;;;;;19.95;14.27;;;;;;;19.09;81.03;101763.22;5047921;28;20056;-75
2022/07/21 02:55:15;;;;;;;22.60;15.07;;;;;;;19.11;81.00;101763.84;5039866;28;20114;-74
2022/07/21 02:57:40;;;;;;;19.77;14.73;;;;;;;19.20;80.93;101761.63;5029863;28;20029;-76
2022/07/21 03:00:09;;;;;;;23.63;14.63;;;;;;;19.10;81.01;101744.66;5033477;28;20048;-75
2022/07/21 03:02:35;;;;;;;20.85;15.68;;;;;;;19.24;80.65;101754.53;5033804;28;20449;-75
2022/07/21 03:05:00;;;;;;;23.87;16.17;;;;;;;19.22;80.68;101749.22;5045326;28;20044;-77
2022/07/21 03:07:26;;;;;;;24.90;16.57;;;;;;;19.22;80.37;101742.81;5048442;28;20029;-76
2022/07/21 03:09:51;;;;;;;21.53;16.67;;;;;;;19.22;80.66;101745.59;5047925;28;20392;-75
2022/07/21 03:12:16;;;;;;;26.07;17.50;;;;;;;19.11;81.13;101743.56;5038695;28;20065;-75
2022/07/21 03:14:42;;;;;;;23.23;16.47;;;;;;;19.07;81.22;101748.72;5030982;28;20120;-75
2022/07/21 03:17:07;;;;;;;23.07;18.03;;;;;;;19.05;81.29;101750.88;5044862;28;20033;-75
2022/07/21 03:19:32;;;;;;;22.87;16.10;;;;;;;19.04;81.15;101753.91;5042591;28;20038;-75
2022/07/21 03:21:58;;;;;;;27.50;17.60;;;;;;;18.97;81.96;101753.09;5027888;28;20036;-77
2022/07/21 03:24:23;;;;;;;22.63;16.13;;;;;;;19.04;81.55;101753.91;5027233;28;20021;-75
2022/07/21 03:26:48;;;;;;;23.67;16.70;;;;;;;19.10;81.41;101737.16;5028913;28;20469;-75
2022/07/21 03:29:14;;;;;;;24.97;16.03;;;;;;;19.18;81.08;101745.19;5035186;28;20029;-74
2022/07/21 03:31:39;;;;;;;22.60;16.83;;;;;;;19.17;80.98;101739.84;5041200;28;20033;-76
2022/07/21 03:34:05;;;;;;;22.57;14.80;;;;;;;19.25;81.04;101739.56;5042189;28;20117;-73
2022/07/21 03:36:30;;;;;;;27.40;17.43;;;;;;;19.29;80.90;101743.56;5046090;28;20047;-74
2022/07/21 03:38:55;;;;;;;22.83;15.90;;;;;;;19.27;80.77;101748.53;5044210;28;20424;-75
2022/07/21 03:41:21;;;;;;;20.87;14.70;;;;;;;19.29;80.46;101746.34;5033714;28;20556;-74
2022/07/21 03:43:46;;;;;;;23.33;15.30;;;;;;;19.33;80.44;101750.38;5037683;28;20029;-76
2022/07/21 03:46:12;;;;;;;26.23;16.60;;;;;;;19.20;81.29;101747.75;5041439;28;20096;-74
2022/07/21 03:48:37;;;;;;;25.10;14.70;;;;;;;19.28;80.81;101745.53;5042402;28;20187;-74
2022/07/21 03:51:03;;;;;;;22.67;14.67;;;;;;;19.27;80.70;101763.25;5033995;28;20341;-73
2022/07/21 03:53:28;;;;;;;25.00;14.90;;;;;;;19.30;80.66;101768.38;5036546;28;20037;-75
2022/07/21 03:55:53;;;;;;;17.90;13.73;;;;;;;19.28;80.52;101764.13;5062825;28;20078;-75
2022/07/21 03:58:19;;;;;;;18.40;13.27;;;;;;;19.33;80.02;101767.06;5040525;28;20052;-74
2022/07/21 04:00:45;;;;;;;22.43;13.33;;;;;;;19.36;79.65;101764.66;5042869;28;20033;-74
2022/07/21 04:03:11;;;;;;;27.55;13.52;;;;;;;19.31;79.81;101767.28;5039272;28;20029;-75
2022/07/21 04:05:38;;;;;;;22.48;13.85;;;;;;;19.35;79.46;101773.22;5045211;28;20033;-76
2022/07/21 04:08:04;;;;;;;21.73;14.02;;;;;;;19.41;78.58;101767.59;5032515;28;20048;-75
2022/07/21 04:10:31;;;;;;;;;;;;;;;19.38;79.01;101770.81;5034651;28;20095;-73
2022/07/21 04:12:58;;;;;;;21.95;13.32;;;;;;;19.39;78.41;101774.44;5035449;28;19917;-76
2022/07/21 04:15:24;;;;;;;29.55;15.45;;;;;;;19.34;78.92;101760.41;5048782;28;20086;-76
2022/07/21 04:17:51;;;;;;;27.23;15.30;;;;;;;19.34;78.86;101764.03;5033651;28;20029;-74
2022/07/21 04:20:16;;;;;;;23.40;15.68;;;;;;;19.31;79.12;101755.34;5031464;28;20377;-76
2022/07/21 04:22:43;;;;;;;27.00;15.57;;;;;;;19.35;79.01;101760.19;5039136;28;20029;-75
2022/07/21 04:25:09;;;;;;;36.08;16.52;;;;;;;19.38;78.63;101759.69;5051006;28;20073;-74
2022/07/21 04:27:36;;;;;;;29.50;16.42;;;;;;;19.44;78.90;101760.72;5047559;28;20025;-76
2022/07/21 04:30:02;;;;;;;30.80;16.60;;;;;;;19.42;79.05;101766.50;5040729;28;20033;-75
2022/07/21 04:32:28;;;;;;;;;;;;;;;19.46;78.73;101764.09;5050871;28;20040;-75
2022/07/21 04:34:53;;;;;;;33.38;17.40;;;;;;;19.41;78.96;101756.47;5050817;28;19920;-76
2022/07/21 04:37:18;;;;;;;32.50;17.77;;;;;;;19.45;79.15;101763.25;5035148;28;20030;-75
2022/07/21 04:39:44;;;;;;;31.60;16.17;;;;;;;19.36;79.18;101761.03;5043632;28;20032;-74
2022/07/21 04:42:09;;;;;;;31.13;15.97;;;;;;;19.43;79.08;101764.56;5033457;28;20061;-75
2022/07/21 04:44:34;;;;;;;38.07;17.03;;;;;;;19.43;79.28;101759.03;5030646;28;20477;-75
2022/07/21 04:47:00;;;;;;;31.63;16.47;;;;;;;19.55;78.89;101766.34;5030603;28;20021;-75
2022/07/21 04:49:25;;;;;;;38.77;18.70;;;;;;;19.56;78.85;101767.19;5028998;28;20041;-77
2022/07/21 04:51:51;;;;;;;35.13;17.60;;;;;;;19.56;78.87;101758.84;5029646;28;20447;-77
2022/07/21 04:54:16;;;;;;;39.90;18.17;;;;;;;19.49;79.24;101763.63;5030162;28;20507;-76
2022/07/21 04:56:42;;;;;;;34.60;17.73;;;;;;;19.43;79.48;101764.56;5030683;28;20037;-76
2022/07/21 04:59:08;;;;;;;38.15;19.52;;;;;;;19.53;79.19;101765.72;5030251;28;20041;-76
2022/07/21 05:01:34;;;;;;;28.40;15.50;;;;;;;19.59;78.62;101763.94;5042271;28;20081;-75
2022/07/21 05:04:00;;;;;;;31.30;15.60;;;;;;;19.53;78.39;101768.50;5050306;28;20047;-76
2022/07/21 05:06:25;;;;;;;26.50;15.90;;;;;;;19.58;78.59;101762.25;5036939;28;20839;-75
2022/07/21 05:08:51;;;;;;;24.20;15.67;;;;;;;19.55;78.89;101768.25;5050535;28;20087;-76
2022/07/21 05:11:16;;;;;;;27.63;15.10;;;;;;;19.48;78.53;101756.41;5038893;28;20029;-76
2022/07/21 05:13:42;;;;;;;32.97;15.93;;;;;;;19.54;78.77;101758.22;5040496;28;20049;-76
2022/07/21 05:16:07;;;;;;;38.73;18.80;;;;;;;19.49;79.01;101761.72;5030035;28;20073;-76
2022/07/21 05:18:33;;;;;;;33.87;18.07;;;;;;;19.54;78.95;101761.00;5028294;28;20048;-74
2022/07/21 05:20:58;;;;;;;41.60;18.67;;;;;;;19.53;79.28;101759.31;5028027;28;20707;-75
2022/07/21 05:23:23;;;;;;;43.63;20.13;;;;;;;19.43;79.30;101764.56;5032126;28;20033;-75
2022/07/21 05:25:49;;;;;;;38.70;18.63;;;;;;;19.47;79.54;101771.38;5034646;28;20030;-76
2022/07/21 05:28:14;;;;;;;39.60;19.73;;;;;;;19.43;79.86;101764.56;5047217;28;20029;-75
2022/07/21 05:30:39;;;;;;;44.37;20.70;;;;;;;19.48;79.77;101764.72;5035366;28;20102;-79
2022/07/21 05:33:05;;;;;;;36.00;19.90;;;;;;;19.53;79.30;101754.59;5029869;28;20104;-76
2022/07/21 05:35:30;;;;;;;44.77;20.80;;;;;;;19.49;79.68;101758.09;5037743;28;20024;-75
2022/07/21 05:37:56;;;;;;;42.07;19.33;;;;;;;19.45;79.81;101748.50;5035207;28;20098;-75
2022/07/21 05:40:21;;;;;;;42.72;21.02;;;;;;;19.48;79.50;101742.50;5048166;28;20120;-75
2022/07/21 05:42:47;;;;;;;44.70;19.80;;;;;;;19.48;79.39;101750.84;5047474;28;20479;-78
2022/07/21 05:45:12;;;;;;;37.70;19.20;;;;;;;19.45;79.45;101754.94;5038477;28;20029;-74
2022/07/21 05:47:38;;;;;;;50.40;20.33;;;;;;;19.51;79.43;101753.13;5029567;28;20029;-77
2022/07/21 05:50:04;;;;;;;53.08;20.58;;;;;;;19.43;79.87;101748.72;5037636;28;20044;-77
2022/07/21 05:52:29;;;;;;;35.50;19.30;;;;;;;19.44;79.66;101752.38;5031974;28;20124;-76
2022/07/21 05:54:54;;;;;;;42.87;20.67;;;;;;;19.43;79.76;101756.25;5030069;28;20132;-77
2022/07/21 05:57:20;;;;;;;46.37;19.60;;;;;;;19.43;80.04;101743.19;5028362;28;20025;-76
2022/07/21 05:59:46;;;;;;;46.77;19.43;;;;;;;19.47;80.08;101755.53;5031336;28;20036;-77
2022/07/21 06:02:11;;;;;;;37.77;19.50;;;;;;;19.50;79.67;101754.22;5039206;28;20498;-75
2022/07/21 06:04:36;;;;;;;40.80;19.43;;;;;;;19.58;79.56;101760.31;5042912;28;20025;-77
2022/07/21 06:07:02;;;;;;;30.53;18.13;;;;;;;19.59;79.36;101750.03;5028552;28;20111;-75
2022/07/21 06:09:27;;;;;;;33.87;18.50;;;;;;;19.62;79.36;101757.91;5044619;28;20652;-73
2022/07/21 06:11:53;;;;;;;39.43;16.80;;;;;;;19.61;79.49;101759.84;5028136;28;20131;-75
2022/07/21 06:14:18;;;;;;;36.47;18.30;;;;;;;19.47;80.25;101757.47;5038079;28;20036;-75
2022/07/21 06:16:44;;;;;;;35.73;18.10;;;;;;;19.40;80.87;101760.34;5036724;28;20060;-75
2022/07/21 06:19:09;;;;;;;34.40;19.10;;;;;;;19.43;80.74;101773.75;5048358;28;20033;-74
2022/07/21 06:21:35;;;;;;;42.10;18.73;;;;;;;19.32;80.94;101771.75;5038595;28;20040;-76
2022/07/21 06:24:01;;;;;;;30.50;18.10;;;;;;;19.49;80.74;101769.19;5029202;28;20037;-77
2022/07/21 06:26:26;;;;;;;36.88;17.88;;;;;;;19.51;80.91;101778.16;5024984;28;20036;-76
2022/07/21 06:28:51;;;;;;;35.80;17.60;;;;;;;19.47;81.31;101768.59;5036875;28;20044;-75
2022/07/21 06:31:16;;;;;;;31.50;18.47;;;;;;;19.45;81.89;101773.53;5028007;28;20343;-78
2022/07/21 06:33:42;;;;;;;53.70;20.53;;;;;;;19.47;81.93;101766.66;5028453;28;20457;-75
2022/07/21 06:36:08;;;;;;;40.43;19.10;;;;;;;19.41;82.30;101769.50;5037864;28;20032;-74
2022/07/21 06:38:34;;;;;;;;;;;;;;;19.42;82.44;101765.66;5029168;28;20132;-75
2022/07/21 06:40:59;;;;;;;36.28;18.77;;;;;;;19.44;82.77;101771.84;5041216;28;19984;-75
2022/07/21 06:43:24;;;;;;;40.53;18.70;;;;;;;19.50;82.53;101770.91;5034870;28;20029;-75
2022/07/21 06:45:50;;;;;;;48.27;20.17;;;;;;;19.48;83.26;101770.28;5028067;28;20025;-76
2022/07/21 06:48:16;;;;;;;33.73;19.03;;;;;;;19.46;83.59;101769.66;5027061;28;20036;-76
2022/07/21 06:50:42;;;;;;;35.70;20.87;;;;;;;19.44;83.44;101767.13;5036106;28;20290;-76
2022/07/21 06:53:07;;;;;;;35.27;18.50;;;;;;;19.43;84.62;101775.69;5028498;28;20025;-74
2022/07/21 06:55:33;;;;;;;31.13;18.77;;;;;;;19.50;84.31;101773.66;5027937;28;20037;-75
2022/07/21 06:58:08;;;;;;;29.43;18.77;;;;;;;19.33;85.35;101778.16;5035615;28;20443;-76
2022/07/21 07:00:34;;;;;;;29.58;17.05;;;;;;;19.44;85.05;101778.25;5027057;28;20045;-77
2022/07/21 07:03:00;;;;;;;27.85;17.48;;;;;;;19.52;84.97;101780.69;5036432;28;20547;-77
2022/07/21 07:05:27;;;;;;;26.40;17.35;;;;;;;19.43;84.92;101782.09;5036442;28;20052;-76
2022/07/21 07:07:53;;;;;;;27.00;16.95;;;;;;;19.34;85.58;101783.50;5038228;28;20099;-75
2022/07/21 07:10:18;;;;;;;31.30;18.37;;;;;;;19.36;85.64;101774.94;5032190;28;20033;-75
2022/07/21 07:12:43;;;;;;;27.70;17.13;;;;;;;19.44;85.38;101789.38;5035245;28;20052;-74
2022/07/21 07:15:09;;;;;;;30.03;18.13;;;;;;;19.30;85.14;101793.38;5029344;28;20056;-77
2022/07/21 07:17:34;;;;;;;28.05;16.30;;;;;;;19.23;85.19;101794.53;5025658;28;20096;-77
2022/07/21 07:20:00;;;;;;;31.73;17.33;;;;;;;19.23;85.91;101802.84;5030197;28;20042;-77
2022/07/21 07:22:26;;;;;;;33.43;16.63;;;;;;;19.10;86.66;101800.19;5029614;28;20032;-77
2022/07/21 07:24:51;;;;;;;33.80;16.80;;;;;;;19.22;86.94;101807.56;5031521;28;20088;-77
2022/07/21 07:27:16;;;;;;;32.70;16.77;;;;;;;19.24;86.60;101801.78;5030083;28;20196;-78
2022/07/21 07:29:42;;;;;;;22.33;12.47;;;;;;;19.14;86.36;101812.53;5028858;28;20041;-78
2022/07/21 07:32:07;;;;;;;17.30;11.10;;;;;;;19.03;86.08;101813.28;5033746;28;20373;-76
2022/07/21 07:34:32;;;;;;;17.07;9.80;;;;;;;18.94;85.87;101814.69;5029947;28;20400;-77
2022/07/21 07:36:58;;;;;;;13.17;9.03;;;;;;;18.88;85.68;101816.44;5037629;28;20033;-76
2022/07/21 07:39:23;;;;;;;15.03;9.43;;;;;;;18.74;86.48;101811.22;5030326;28;20116;-78
2022/07/21 07:41:48;;;;;;;20.10;12.27;;;;;;;18.67;87.06;101821.56;5040923;28;20116;-77
2022/07/21 07:44:14;;;;;;;19.00;11.70;;;;;;;18.69;86.97;101822.16;5036227;28;20105;-76
2022/07/21 07:46:39;;;;;;;16.87;12.23;;;;;;;18.66;88.36;101822.59;5030576;28;20032;-78
2022/07/21 07:49:04;;;;;;;22.20;13.20;;;;;;;18.72;87.83;101817.00;5043516;28;20040;-78
2022/07/21 07:51:30;;;;;;;22.83;12.93;;;;;;;18.72;87.29;101816.16;5035442;28;20171;-79
2022/07/21 07:53:55;;;;;;;21.83;13.67;;;;;;;18.70;87.90;101819.16;5043191;28;20037;-78
2022/07/21 07:56:20;;;;;;;29.17;14.17;;;;;;;18.71;87.10;101808.88;5030727;28;20033;-79
2022/07/21 07:58:45;;;;;;;25.50;14.30;;;;;;;18.73;87.85;101823.41;5037188;28;20048;-78
2022/07/21 08:01:11;;;;;;;30.90;13.43;;;;;;;18.71;88.00;101811.66;5028848;28;20503;-79
2022/07/21 08:03:36;;;;;;;23.43;12.83;;;;;;;18.82;87.47;101816.47;5031042;28;20087;-80
2022/07/21 08:06:03;;;;;;;22.47;12.97;;;;;;;18.87;87.81;101819.41;5031875;28;20029;-79
2022/07/21 08:08:29;;;;;;;18.58;12.20;;;;;;;18.85;87.73;101818.81;5038160;28;20499;-80
2022/07/21 08:10:54;;;;;;;22.10;11.48;;;;;;;18.72;87.84;101819.78;5029318;28;20029;-79
2022/07/21 08:13:20;;;;;;;22.73;12.50;;;;;;;18.75;87.75;101816.56;5030024;28;20438;-79
2022/07/21 08:15:49;;;;;;;16.10;11.70;;;;;;;18.95;86.90;101821.94;5028358;28;20075;-80
2022/07/21 08:18:16;;;;;;;21.73;12.25;;;;;;;18.90;88.19;101821.75;5029687;28;20034;-77
2022/07/21 08:20:41;;;;;;;;;;;;;;;18.85;88.07;101829.91;5036716;28;20087;-77
2022/07/21 08:23:07;;;;;;;16.92;10.85;;;;;;;18.80;88.06;101826.97;5027434;28;19924;-75
2022/07/21 08:25:33;;;;;;;19.47;11.10;;;;;;;18.94;87.51;101826.63;5026369;28;20366;-77
2022/07/21 08:27:58;;;;;;;22.13;11.50;;;;;;;19.06;86.93;101829.50;5033505;28;20079;-78
2022/07/21 08:30:24;;;;;;;25.43;11.50;;;;;;;19.14;87.13;101824.50;5038113;28;20036;-79
2022/07/21 08:32:49;;;;;;;19.03;10.10;;;;;;;19.00;88.05;101833.19;5033719;28;20029;-79
2022/07/21 08:35:14;;;;;;;17.63;10.10;;;;;;;19.02;87.10;101825.47;5029385;28;20083;-79
2022/07/21 08:37:40;;;;;;;18.07;9.20;;;;;;;19.14;87.40;101826.41;5029105;28;20022;-80
2022/07/21 08:40:08;;;;;;;17.77;8.37;;;;;;;19.17;87.56;101831.53;5043368;28;20116;-78
2022/07/21 08:42:34;;;;;;;13.05;8.25;;;;;;;19.34;87.55;101822.41;5039033;28;20358;-78
2022/07/21 08:45:00;;;;;;;8.05;5.72;;;;;;;19.37;85.29;101833.03;5033035;28;20033;-79
2022/07/21 08:47:26;;;;;;;7.63;4.63;;;;;;;19.40;85.57;101838.16;5030485;28;20036;-78
2022/07/21 08:49:51;;;;;;;6.63;4.30;;;;;;;19.35;86.72;101834.34;5044582;28;20043;-77
2022/07/21 08:52:18;;;;;;;5.10;4.60;;;;;;;19.38;85.76;101839.47;5031726;28;20528;-79
2022/07/21 08:54:44;;;;;;;5.68;3.58;;;;;;;19.30;85.61;101828.63;5037064;28;20435;-78
2022/07/21 08:57:09;;;;;;;8.40;3.80;;;;;;;19.36;85.51;101841.63;5051181;28;20128;-77
2022/07/21 08:59:34;;;;;;;8.10;3.43;;;;;;;19.36;86.34;101836.06;5040404;28;20451;-79
2022/07/21 09:01:59;;;;;;;6.97;3.73;;;;;;;19.41;86.04;101841.75;5034587;28;20025;-79
2022/07/21 09:04:26;;;;;;;7.27;3.20;;;;;;;19.29;85.45;101841.69;5040642;28;20029;-78
2022/07/21 09:07:04;;;;;;;7.35;3.72;;;;;;;19.17;86.27;101843.50;5034681;28;20047;-77
2022/07/21 09:09:31;;;;;;;8.65;3.40;;;;;;;19.33;85.94;101847.63;5029277;28;20026;-78
2022/07/21 09:11:56;;;;;;;;;;;;;;;19.21;86.83;101846.66;5030438;28;20527;-79
2022/07/21 09:14:25;;;;;;;10.57;4.28;;;;;;;19.17;85.78;101848.19;5028831;28;20024;-79
2022/07/21 09:16:57;;;;;;;10.25;4.75;;;;;;;19.10;86.55;101858.53;5028744;28;20048;-77
2022/07/21 09:19:27;;;;;;;9.93;4.20;;;;;;;19.05;85.28;101861.97;5033156;28;20036;-76
2022/07/21 09:21:55;;;;;;;8.93;4.50;;;;;;;19.09;86.04;101863.22;5031048;28;20036;-76
2022/07/21 09:24:26;;;;;;;9.70;4.75;;;;;;;18.97;84.82;101859.50;5029975;28;20404;-78
2022/07/21 09:27:04;;;;;;;12.43;5.35;;;;;;;19.13;85.14;101863.63;5025762;28;20029;-76
2022/07/21 09:29:44;;;;;;;9.30;6.00;;;;;;;19.08;84.40;101855.97;5034284;28;20162;-79
2022/07/21 09:32:12;;;;;;;12.52;5.63;;;;;;;18.83;84.78;101859.84;5035763;28;20025;-78
2022/07/21 09:34:38;;;;;;;12.05;5.22;;;;;;;18.86;84.72;101867.72;5029230;28;20025;-79
2022/07/21 09:37:05;;;;;;;12.53;5.43;;;;;;;19.03;83.42;101857.72;5032510;28;20037;-76
2022/07/21 09:40:11;;;;;;;13.85;5.40;;;;;;;19.25;83.82;101862.66;5032310;28;20066;-76
2022/07/21 09:42:40;;;;;;;9.20;5.30;;;;;;;19.23;84.28;101866.75;4963828;28;20042;-78
2022/07/21 09:45:07;;;;;;;10.13;5.88;;;;;;;19.39;84.29;101866.16;5019982;28;20072;-76
2022/07/21 09:47:33;;;;;;;11.10;5.97;;;;;;;19.51;83.33;101869.88;5032759;28;20112;-76
2022/07/21 09:50:01;;;;;;;12.23;5.75;;;;;;;19.51;82.57;101861.53;5039569;28;20029;-77
2022/07/21 09:52:32;;;;;;;10.70;6.10;;;;;;;19.46;83.58;101872.50;5044388;28;20537;-78
2022/07/21 09:54:59;;;;;;;12.90;6.22;;;;;;;19.42;83.51;101874.88;5027228;28;20388;-77
2022/07/21 09:57:26;;;;;;;16.80;6.30;;;;;;;19.35;83.52;101873.25;5035031;28;20437;-78
2022/07/21 09:59:52;;;;;;;12.25;5.93;;;;;;;19.24;83.83;101882.34;5027081;28;20113;-78
2022/07/21 10:02:19;;;;;;;9.52;5.10;;;;;;;18.98;83.51;101888.97;5028966;28;20105;-79
2022/07/21 10:04:59;;;;;;;7.15;4.78;;;;;;;18.95;83.08;101892.19;5028514;28;20033;-78
2022/07/21 10:07:26;;;;;;;8.10;4.78;;;;;;;18.85;83.01;101888.22;5037273;28;20078;-76
2022/07/21 10:09:52;;;;;;;7.88;4.85;;;;;;;18.96;84.13;101896.69;5028600;28;20102;-76
2022/07/21 10:12:18;;;;;;;7.32;4.63;;;;;;;18.86;84.10;101901.03;5043764;28;20048;-76
2022/07/21 10:14:44;;;;;;;8.90;4.57;;;;;;;18.96;83.41;101893.91;5049373;28;20025;-76
2022/07/21 10:17:10;;;;;;;8.68;4.75;;;;;;;18.85;83.65;101893.78;5033145;28;20025;-76
2022/07/21 10:19:44;;;;;;;8.97;4.50;;;;;;;18.87;83.76;101892.47;5040201;28;20033;-77
2022/07/21 10:22:15;;;;;;;5.55;3.90;;;;;;;18.68;83.06;101900.97;5043149;28;20040;-75
2022/07/21 10:24:41;;;;;;;4.68;3.30;;;;;;;18.66;84.17;101900.31;5047706;28;20029;-77
2022/07/21 10:27:12;;;;;;;11.50;3.97;;;;;;;18.56;85.00;101908.31;5041706;28;20369;-75
2022/07/21 10:29:58;;;;;;;9.10;3.58;;;;;;;18.59;85.04;101905.06;5028997;28;20434;-79
2022/07/21 10:32:30;;;;;;;9.48;4.30;;;;;;;18.49;85.85;101900.03;5029718;28;20546;-76
2022/07/21 10:34:57;;;;;;;6.82;3.47;;;;;;;18.44;86.61;101910.06;5028572;28;20064;-76
2022/07/21 10:37:40;;;;;;;6.75;3.40;;;;;;;18.43;86.54;101920.34;5035721;28;20032;-76
2022/07/21 10:40:26;;;;;;;9.10;4.40;;;;;;;18.33;87.33;101911.66;5048232;28;20074;-78
2022/07/21 10:42:57;;;;;;;7.50;3.78;;;;;;;18.40;87.24;101917.16;5024854;28;20049;-77
2022/07/21 10:45:36;;;;;;;7.10;3.85;;;;;;;18.41;87.82;101910.53;5028197;28;20041;-77
2022/07/21 10:48:04;;;;;;;5.03;3.42;;;;;;;18.48;88.28;101919.66;5028413;28;20647;-78
2022/07/21 10:50:31;;;;;;;7.00;3.92;;;;;;;18.49;88.30;101922.22;5028525;28;20095;-77
2022/07/21 10:53:02;;;;;;;8.75;3.92;;;;;;;18.58;88.25;101922.81;5027912;28;20033;-79
2022/07/21 10:55:30;;;;;;;6.90;4.32;;;;;;;18.76;87.90;101922.88;5030264;28;20030;-79
2022/07/21 10:58:10;;;;;;;5.18;3.75;;;;;;;18.66;87.66;101928.06;5039053;28;20025;-79
2022/07/21 11:00:39;;;;;;;4.03;3.15;;;;;;;18.73;87.92;101926.13;5047920;28;20033;-78
2022/07/21 11:03:17;;;;;;;6.22;3.22;;;;;;;18.96;87.45;101929.16;5039441;28;20033;-76
2022/07/21 11:06:15;;;;;;;6.20;3.13;;;;;;;19.01;86.77;101930.19;5043422;28;20386;-78
2022/07/21 11:08:51;;;;;;;5.40;3.28;;;;;;;18.98;85.91;101938.09;5030300;28;20366;-79
2022/07/21 11:11:27;;;;;;;9.15;2.90;;;;;;;18.83;86.29;101932.03;5030061;28;20037;-80
2022/07/21 11:14:14;;;;;;;5.25;3.13;;;;;;;18.77;87.38;101938.47;5034487;28;20538;-77
2022/07/21 11:16:42;;;;;;;6.45;3.42;;;;;;;18.76;87.33;101945.09;5027505;28;20037;-78
2022/07/21 11:19:26;;;;;;;6.07;2.65;;;;;;;18.74;86.99;101955.59;5032067;28;20053;-78